Grand Marais, Michigan
Current Conditions -  °F | °C
As of 10:53 PM on Wednesday 22 Oct 2014 (Local Time) from KERY Reporting Station
Clear Clear  
Wind Chill: 29°   Ceiling: Unl
Heat Index: 34°   Visibility: 10mi
Dew Point: 32°   Wind: 6mph
Humidity: 92%   Direction: 170°S
Pressure: 30.27"   Gusts: NA
Location:  46.67°N, 85.99°W
Report Text: KERY 230253Z AUTO 17005KT 10SM CLR 01/00 A3027 RMK AO2 T00120001
Loading
Personal Weather Stations






























Interactive Weather Map
Tropical Storm Tracking
New forecast layout! Learn more

10-Day Weather Forecast

Advertisements
Track Severe Weather on mobile